Time;durP1;ratioP1;P1;durP2;ratioP2;P2;SDS_P1;SDS_P2;PMS_P1;PMS_P2;Temp;Humidity;BMP_temperature;BMP_pressure;BME280_temperature;BME280_humidity;BME280_pressure;Samples;Min_cycle;Max_cycle;Signal;HPM_P1;HPM_P2
2022/06/06 00:00:00;;;;;;;8.50;5.60;;;18.00;99.90;;;;;;5054072;28;20513;-88
2022/06/06 00:02:27;;;;;;;12.63;5.97;;;18.00;99.90;;;;;;5054310;28;20033;-88
2022/06/06 00:04:54;;;;;;;9.30;6.10;;;;;;;;;;5046660;28;20954;-87
2022/06/06 00:07:20;;;;;;;8.45;4.88;;;18.00;99.90;;;;;;5051685;28;20029;-89
2022/06/06 00:09:46;;;;;;;9.45;6.32;;;;;;;;;;5047644;28;20467;-88
2022/06/06 00:12:12;;;;;;;11.65;6.15;;;;;;;;;;5041621;28;20026;-87
2022/06/06 00:14:38;;;;;;;7.63;5.55;;;;;;;;;;5057338;28;20036;-88
2022/06/06 00:17:05;;;;;;;7.70;5.85;;;17.90;99.90;;;;;;5037534;28;20029;-87
2022/06/06 00:19:31;;;;;;;6.97;5.35;;;;;;;;;;5041358;28;20025;-88
2022/06/06 00:21:57;;;;;;;5.90;4.90;;;;;;;;;;5044252;28;20024;-90
2022/06/06 00:24:23;;;;;;;7.20;4.95;;;;;;;;;;5032591;28;20040;-89
2022/06/06 00:26:49;;;;;;;7.45;5.63;;;;;;;;;;5034912;28;20041;-89
2022/06/06 00:29:17;;;;;;;10.40;6.10;;;17.60;99.90;;;;;;5041031;28;20024;-89
2022/06/06 00:37:14;;;;;;;10.23;5.50;;;17.70;99.90;;;;;;5055667;28;20075;-89
2022/06/06 00:39:42;;;;;;;6.63;5.63;;;17.70;99.90;;;;;;5032620;28;20076;-89
2022/06/06 00:42:22;;;;;;;6.95;5.43;;;17.70;99.90;;;;;;5036038;28;20060;-88
2022/06/06 00:44:48;;;;;;;8.25;5.95;;;;;;;;;;5050166;28;20197;-89
2022/06/06 00:47:20;;;;;;;8.95;5.88;;;17.60;99.90;;;;;;5040164;28;20029;-87
2022/06/06 00:49:55;;;;;;;8.35;5.43;;;17.70;99.90;;;;;;5047162;28;20048;-89
2022/06/06 00:52:35;;;;;;;9.35;6.22;;;17.70;99.90;;;;;;5050099;28;20009;-90
2022/06/06 00:55:17;;;;;;;10.48;6.70;;;17.70;99.90;;;;;;5034058;28;20049;-88
2022/06/06 00:57:48;;;;;;;9.30;7.38;;;17.70;99.90;;;;;;5038799;28;20043;-89
2022/06/06 01:00:17;;;;;;;9.73;6.65;;;17.60;99.90;;;;;;5036800;28;20021;-87
2022/06/06 01:02:45;;;;;;;12.18;6.65;;;17.50;99.90;;;;;;5026999;28;20033;-88
2022/06/06 01:05:11;;;;;;;11.75;6.82;;;17.50;99.90;;;;;;5038463;28;20108;-86
2022/06/06 01:07:37;;;;;;;10.90;6.65;;;17.50;99.90;;;;;;5035184;28;20033;-87
2022/06/06 01:10:04;;;;;;;10.75;6.53;;;17.50;99.90;;;;;;5051856;28;20022;-88
2022/06/06 01:12:32;;;;;;;9.20;6.68;;;17.50;99.90;;;;;;5050640;28;20048;-88
2022/06/06 01:15:09;;;;;;;12.50;7.05;;;17.50;99.90;;;;;;5058654;28;20029;-88
2022/06/06 01:18:05;;;;;;;17.15;7.22;;;17.10;99.90;;;;;;5034258;28;20044;-90
2022/06/06 01:21:12;;;;;;;8.98;6.57;;;17.40;99.90;;;;;;5044921;28;20041;-89
2022/06/06 01:24:15;;;;;;;10.18;6.72;;;17.40;99.90;;;;;;4999095;28;20034;-88
2022/06/06 01:26:56;;;;;;;8.80;6.43;;;17.30;99.90;;;;;;4987616;28;20066;-88
2022/06/06 01:29:28;;;;;;;7.95;5.88;;;17.40;99.90;;;;;;5042900;28;20432;-87
2022/06/06 01:32:08;;;;;;;8.93;5.90;;;17.40;99.90;;;;;;5069484;28;20017;-85
2022/06/06 01:34:36;;;;;;;;;;;17.40;99.90;;;;;;5052238;28;20022;-87
2022/06/06 01:37:02;;;;;;;9.95;6.72;;;;;;;;;;5037777;28;19917;-87
2022/06/06 01:39:31;;;;;;;14.63;6.90;;;17.30;99.90;;;;;;5035615;28;20046;-88
2022/06/06 01:42:14;;;;;;;7.70;6.10;;;17.30;99.90;;;;;;5022465;28;20083;-88
2022/06/06 01:44:47;;;;;;;12.00;6.70;;;17.20;99.90;;;;;;5048562;28;20025;-89
2022/06/06 01:47:27;;;;;;;10.38;6.25;;;17.20;99.90;;;;;;5040483;28;20100;-89
2022/06/06 01:49:57;;;;;;;12.40;6.25;;;17.20;99.90;;;;;;5040468;28;20070;-90
2022/06/06 01:52:23;;;;;;;12.50;6.70;;;17.20;99.90;;;;;;5043463;28;20209;-87
2022/06/06 01:54:53;;;;;;;9.25;6.40;;;17.10;99.90;;;;;;5041939;28;20032;-85
2022/06/06 01:57:19;;;;;;;;;;;17.10;99.90;;;;;;5053381;28;20029;-88
2022/06/06 01:59:46;;;;;;;10.07;6.78;;;17.00;99.90;;;;;;5053087;28;19967;-88
2022/06/06 04:05:30;;;;;;;10.57;5.80;;;16.60;99.90;;;;;;5081126;28;20440;-81
2022/06/06 04:07:56;;;;;;;7.25;5.63;;;16.70;99.90;;;;;;5046144;28;20029;-80
2022/06/06 04:10:38;;;;;;;10.02;5.70;;;16.60;99.90;;;;;;5057020;28;20025;-89
2022/06/06 04:13:24;;;;;;;8.10;6.18;;;16.60;99.90;;;;;;5069572;28;20043;-88
2022/06/06 04:15:50;;;;;;;10.68;6.13;;;16.60;99.90;;;;;;5050484;28;20059;-79
2022/06/06 04:18:41;;;;;;;7.13;5.55;;;16.60;99.90;;;;;;5050052;28;20029;-81
2022/06/06 04:21:36;;;;;;;9.38;6.05;;;16.60;99.90;;;;;;5044264;28;20032;-81
2022/06/06 04:24:20;;;;;;;10.38;6.40;;;16.60;99.90;;;;;;5057273;28;20040;-81
2022/06/06 04:26:53;;;;;;;9.02;5.75;;;16.60;99.90;;;;;;5044013;28;20025;-84
2022/06/06 04:29:43;;;;;;;8.35;5.93;;;16.60;99.90;;;;;;5065951;28;20393;-76
2022/06/06 04:32:20;;;;;;;12.48;6.20;;;16.50;99.90;;;;;;5055404;28;20024;-76
2022/06/06 04:35:02;;;;;;;10.95;6.20;;;16.60;99.90;;;;;;5062388;28;20089;-76
2022/06/06 04:37:38;;;;;;;7.00;5.15;;;16.60;99.90;;;;;;5079045;28;20031;-75
2022/06/06 04:40:35;;;;;;;10.68;5.97;;;16.60;99.90;;;;;;5072423;28;20032;-77
2022/06/06 04:43:25;;;;;;;9.23;6.10;;;16.80;99.90;;;;;;5061184;28;20089;-75
2022/06/06 04:46:14;;;;;;;13.63;5.72;;;16.90;99.90;;;;;;5058290;28;20022;-77
2022/06/06 04:48:41;;;;;;;18.08;6.90;;;16.90;99.90;;;;;;5052090;28;20075;-81
2022/06/06 04:51:08;;;;;;;7.93;5.82;;;17.00;99.90;;;;;;5036589;28;20045;-79
2022/06/06 04:53:39;;;;;;;7.85;5.90;;;17.00;99.90;;;;;;5039359;28;20060;-81
2022/06/06 04:56:07;;;;;;;9.23;5.82;;;17.10;99.90;;;;;;5044676;28;20029;-80
2022/06/06 04:58:35;;;;;;;8.35;5.75;;;17.00;99.90;;;;;;5059977;28;20014;-76
2022/06/06 05:01:02;;;;;;;8.93;5.80;;;17.00;99.90;;;;;;5048659;28;20033;-78
2022/06/06 05:03:27;;;;;;;10.20;5.72;;;17.00;99.90;;;;;;5040651;28;20060;-78
2022/06/06 05:06:40;;;;;;;8.18;5.60;;;17.00;99.90;;;;;;5046802;28;20425;-79
2022/06/06 05:09:16;;;;;;;8.48;5.35;;;17.00;99.90;;;;;;5029727;28;20090;-79
2022/06/06 05:12:30;;;;;;;8.45;5.13;;;17.00;99.90;;;;;;5046290;28;20021;-78
2022/06/06 05:15:20;;;;;;;7.50;5.28;;;16.90;99.90;;;;;;5046928;28;20029;-79
2022/06/06 05:17:55;;;;;;;10.88;5.68;;;16.90;99.90;;;;;;5020748;28;20057;-77
2022/06/06 05:20:40;;;;;;;8.18;5.50;;;17.00;99.90;;;;;;5037941;28;20034;-79
2022/06/06 05:23:53;;;;;;;8.68;5.07;;;17.00;99.90;;;;;;5031034;28;20021;-80
2022/06/06 05:26:25;;;;;;;8.35;5.10;;;17.20;99.90;;;;;;5021696;28;20029;-81
2022/06/06 05:29:08;;;;;;;5.85;4.72;;;17.40;99.90;;;;;;5025912;28;20033;-78
2022/06/06 05:31:36;;;;;;;8.55;5.55;;;17.50;99.90;;;;;;5024620;28;20029;-81
2022/06/06 05:34:12;;;;;;;7.72;5.43;;;17.50;99.90;;;;;;5031771;28;20041;-79
2022/06/06 05:36:59;;;;;;;6.85;4.57;;;17.50;99.90;;;;;;5029801;28;20033;-76
2022/06/06 05:39:45;;;;;;;8.68;5.32;;;17.50;99.90;;;;;;5045662;28;20034;-80
2022/06/06 05:42:45;;;;;;;7.57;5.15;;;17.50;99.90;;;;;;5024665;28;20049;-80
2022/06/06 05:45:42;;;;;;;10.40;5.60;;;17.60;99.90;;;;;;5044525;28;20057;-79
2022/06/06 05:48:28;;;;;;;9.98;5.32;;;17.50;99.90;;;;;;5028153;28;20037;-81
2022/06/06 05:50:59;;;;;;;7.05;4.97;;;17.40;99.90;;;;;;5031428;28;20028;-80
2022/06/06 05:53:46;;;;;;;9.27;5.63;;;17.30;99.90;;;;;;5031059;28;20524;-80
2022/06/06 05:56:11;;;;;;;7.97;4.95;;;17.30;99.90;;;;;;5044905;28;20029;-79
2022/06/06 05:59:03;;;;;;;9.13;5.30;;;17.40;99.90;;;;;;5034449;28;20040;-77
2022/06/06 06:01:55;;;;;;;8.32;4.90;;;17.40;99.90;;;;;;5042177;28;20029;-89
2022/06/06 06:04:24;;;;;;;7.28;5.00;;;17.60;99.90;;;;;;5030668;28;20043;-85
2022/06/06 06:07:27;;;;;;;10.45;4.93;;;17.80;99.90;;;;;;5021976;28;20026;-82
2022/06/06 06:10:06;;;;;;;6.72;4.07;;;18.30;99.90;;;;;;5014965;28;20486;-84
2022/06/06 06:12:44;;;;;;;7.72;4.80;;;18.70;99.90;;;;;;5027880;28;20067;-85
2022/06/06 06:15:33;;;;;;;6.03;4.60;;;18.70;99.90;;;;;;5034339;28;20091;-82
2022/06/06 06:18:01;;;;;;;8.52;5.10;;;18.60;99.90;;;;;;5027610;28;20030;-80
2022/06/06 06:20:35;;;;;;;7.97;5.30;;;18.50;99.90;;;;;;5028395;28;20034;-81
2022/06/06 06:23:18;;;;;;;6.60;4.35;;;18.40;99.90;;;;;;5030612;28;20036;-83
2022/06/06 06:25:46;;;;;;;8.77;4.80;;;18.30;99.90;;;;;;5020431;28;20041;-81
2022/06/06 06:28:13;;;;;;;7.63;4.65;;;18.20;99.90;;;;;;5027789;28;20025;-81
2022/06/06 06:31:03;;;;;;;8.68;5.45;;;18.20;99.90;;;;;;5024186;28;20026;-81
2022/06/06 06:33:41;;;;;;;8.63;5.00;;;18.30;99.90;;;;;;5038878;28;20036;-82
2022/06/06 06:36:26;;;;;;;7.95;4.97;;;18.40;99.90;;;;;;5033247;28;20033;-81
2022/06/06 06:39:13;;;;;;;9.10;5.32;;;18.40;99.90;;;;;;5025256;28;20056;-79
2022/06/06 06:41:45;;;;;;;7.90;5.28;;;18.50;99.90;;;;;;5029456;28;20025;-80
2022/06/06 06:44:18;;;;;;;9.10;4.63;;;18.60;99.90;;;;;;5030124;28;20052;-79
2022/06/06 06:46:50;;;;;;;7.63;5.00;;;18.60;99.90;;;;;;5026359;28;20516;-79
2022/06/06 06:49:28;;;;;;;6.75;4.57;;;18.60;99.90;;;;;;5023567;28;20032;-86
2022/06/06 06:52:25;;;;;;;6.50;4.15;;;18.80;99.90;;;;;;5027615;28;20025;-81
2022/06/06 06:55:09;;;;;;;5.70;4.43;;;19.00;99.90;;;;;;5021428;28;20033;-81
2022/06/06 06:57:46;;;;;;;5.90;4.07;;;19.00;99.90;;;;;;5020568;28;20042;-79
2022/06/06 07:00:21;;;;;;;6.80;4.60;;;19.10;99.90;;;;;;5042793;28;20021;-79
2022/06/06 07:10:13;;;;;;;7.55;4.47;;;19.30;99.90;;;;;;5022744;28;20064;-80
2022/06/06 07:12:52;;;;;;;8.05;4.78;;;19.60;99.90;;;;;;5026663;28;20406;-79
2022/06/06 07:15:21;;;;;;;6.55;3.90;;;19.60;99.90;;;;;;5030681;28;20029;-79
2022/06/06 07:17:53;;;;;;;4.90;3.80;;;19.80;99.90;;;;;;5025010;28;20050;-83
2022/06/06 07:20:20;;;;;;;7.25;4.35;;;19.90;99.90;;;;;;5031703;28;20037;-78
2022/06/06 07:22:59;;;;;;;5.22;3.70;;;19.70;99.90;;;;;;5027816;28;20049;-81
2022/06/06 07:25:26;;;;;;;8.95;3.80;;;19.80;99.90;;;;;;5028163;28;20038;-80
2022/06/06 07:27:52;;;;;;;6.28;3.50;;;19.90;99.90;;;;;;5033387;28;20560;-80
2022/06/06 07:30:21;;;;;;;6.32;3.80;;;;;;;;;;5024671;28;20479;-80
2022/06/06 07:33:21;;;;;;;5.85;3.53;;;;;;;;;;5053476;23;20059;-82
2022/06/06 07:36:05;;;;;;;4.95;3.45;;;;;;;;;;5040297;28;20036;-82
2022/06/06 07:39:00;;;;;;;5.28;3.35;;;20.50;99.90;;;;;;5056551;28;20538;-82
2022/06/06 07:41:46;;;;;;;5.13;3.20;;;20.50;99.90;;;;;;5046988;28;20049;-79
2022/06/06 07:44:43;;;;;;;5.78;2.70;;;20.50;99.90;;;;;;5052113;28;20093;-79
2022/06/06 07:47:37;;;;;;;5.95;3.42;;;20.40;99.90;;;;;;5041030;28;20103;-82
2022/06/06 07:50:29;;;;;;;10.38;4.00;;;20.50;99.90;;;;;;5048773;28;20025;-80
2022/06/06 07:52:58;;;;;;;4.72;3.40;;;20.40;99.90;;;;;;5039664;28;20272;-80
2022/06/06 07:55:31;;;;;;;7.32;3.33;;;20.40;99.90;;;;;;5051652;28;20640;-74
2022/06/06 07:58:16;;;;;;;6.18;3.38;;;20.40;99.90;;;;;;5057713;28;20051;-80
2022/06/06 08:00:49;;;;;;;5.93;3.70;;;20.40;99.90;;;;;;5038614;28;20026;-82
2022/06/06 08:03:23;;;;;;;6.35;3.20;;;20.50;99.90;;;;;;5048025;28;20072;-78
2022/06/06 08:06:01;;;;;;;5.28;3.17;;;20.40;99.90;;;;;;5057558;28;20410;-76
2022/06/06 08:08:45;;;;;;;5.20;3.20;;;20.60;99.90;;;;;;5084532;28;20032;-80
2022/06/06 08:11:20;;;;;;;5.72;3.17;;;20.70;99.90;;;;;;5059234;28;20118;-79
2022/06/06 08:13:58;;;;;;;3.97;3.00;;;21.00;99.90;;;;;;5050171;28;20018;-80
2022/06/06 08:16:47;;;;;;;4.72;2.97;;;20.90;99.90;;;;;;5054181;28;20033;-77
2022/06/06 08:19:34;;;;;;;5.45;3.22;;;21.00;99.90;;;;;;5054682;28;20551;-81
2022/06/06 08:22:01;;;;;;;6.65;3.00;;;21.10;99.90;;;;;;5073613;28;20052;-76
2022/06/06 08:24:34;;;;;;;5.68;3.40;;;21.10;99.90;;;;;;5066777;28;20159;-76
2022/06/06 08:27:03;;;;;;;3.92;2.78;;;21.30;99.90;;;;;;5069393;28;20073;-76
2022/06/06 08:29:33;;;;;;;4.03;3.10;;;21.10;99.90;;;;;;5070650;28;20024;-76
2022/06/06 08:31:59;;;;;;;6.40;3.20;;;20.90;99.90;;;;;;5072674;28;20017;-77
2022/06/06 08:34:27;;;;;;;4.07;2.90;;;20.90;99.90;;;;;;5071174;28;20044;-74
2022/06/06 08:37:30;;;;;;;6.97;3.38;;;21.10;99.90;;;;;;5070270;28;20253;-73
2022/06/06 08:40:18;;;;;;;5.70;2.80;;;21.00;99.90;;;;;;5067850;28;20346;-74
2022/06/06 08:43:03;;;;;;;3.85;2.35;;;21.00;99.90;;;;;;5069335;28;20037;-74
2022/06/06 08:45:50;;;;;;;4.13;2.65;;;21.10;99.90;;;;;;5060205;28;20045;-76
2022/06/06 08:48:41;;;;;;;4.22;2.55;;;21.20;99.90;;;;;;5052500;28;20029;-81
2022/06/06 08:51:36;;;;;;;4.57;2.58;;;21.20;99.90;;;;;;5071282;28;20084;-81
2022/06/06 08:54:21;;;;;;;4.10;2.70;;;21.20;99.90;;;;;;5062000;28;20090;-81
2022/06/06 08:57:21;;;;;;;4.68;2.15;;;21.30;99.90;;;;;;5059561;28;20025;-84
2022/06/06 09:00:07;;;;;;;6.28;2.92;;;21.40;99.90;;;;;;5070689;28;20021;-79
2022/06/06 09:03:02;;;;;;;4.00;2.40;;;21.80;99.90;;;;;;5056238;28;20033;-82
2022/06/06 09:06:17;;;;;;;4.57;1.83;;;21.90;99.90;;;;;;5057242;28;20440;-77
2022/06/06 09:09:07;;;;;;;3.00;1.85;;;21.70;99.90;;;;;;4984790;28;20294;-81
2022/06/06 09:11:51;;;;;;;3.92;1.85;;;21.70;99.90;;;;;;4978402;28;20502;-80
2022/06/06 09:14:42;;;;;;;3.60;1.80;;;21.60;99.80;;;;;;5047260;28;20478;-81
2022/06/06 09:17:20;;;;;;;3.00;1.80;;;21.60;99.90;;;;;;5061131;28;20039;-81
2022/06/06 09:20:27;;;;;;;3.65;1.70;;;21.50;99.90;;;;;;5057196;28;22240;-81
2022/06/06 09:23:38;;;;;;;3.45;1.85;;;21.60;99.90;;;;;;5056978;28;20059;-81
2022/06/06 09:26:50;;;;;;;5.18;1.73;;;21.70;99.00;;;;;;5054061;28;20037;-82
2022/06/06 09:29:22;;;;;;;7.18;1.60;;;21.80;99.10;;;;;;5073778;28;20033;-81
2022/06/06 09:32:01;;;;;;;3.92;1.55;;;22.10;99.00;;;;;;5060300;28;20038;-78
2022/06/06 09:34:39;;;;;;;1.90;1.30;;;22.50;98.10;;;;;;5060567;28;20047;-77
2022/06/06 09:37:32;;;;;;;2.38;1.42;;;22.60;96.50;;;;;;5060437;28;20037;-78
2022/06/06 09:40:16;;;;;;;4.75;1.77;;;22.80;96.70;;;;;;5070644;28;20010;-76
2022/06/06 09:43:13;;;;;;;2.88;1.35;;;22.80;96.50;;;;;;5086191;28;20021;-81
2022/06/06 09:46:09;;;;;;;4.85;1.80;;;22.90;95.80;;;;;;5070350;28;20063;-84
2022/06/06 09:49:02;;;;;;;4.47;1.83;;;22.90;95.90;;;;;;5064601;28;20036;-85
2022/06/06 09:51:41;;;;;;;4.55;1.40;;;22.90;96.00;;;;;;5063110;28;20036;-79
2022/06/06 10:00:21;;;;;;;3.50;1.20;;;22.60;94.70;;;;;;5056879;28;20203;-82
2022/06/06 10:06:24;;;;;;;4.90;1.50;;;22.60;95.20;;;;;;4998271;28;20102;-84
2022/06/06 10:09:02;;;;;;;;;;;22.70;95.40;;;;;;4986848;28;20034;-84
2022/06/06 10:12:11;;;;;;;5.10;1.90;;;22.60;95.90;;;;;;4986614;28;19910;-81
2022/06/06 10:14:39;;;;;;;4.70;1.88;;;22.60;95.80;;;;;;4992401;28;20034;-82
2022/06/06 10:17:45;;;;;;;3.45;2.08;;;22.60;95.60;;;;;;4988215;28;20039;-81
2022/06/06 10:20:45;;;;;;;2.75;1.60;;;22.60;95.60;;;;;;5000166;28;20406;-83
2022/06/06 10:23:36;;;;;;;2.25;1.60;;;22.50;96.10;;;;;;5001638;28;20026;-83
2022/06/06 10:26:34;;;;;;;3.70;2.00;;;22.80;96.10;;;;;;4997525;28;20044;-84
2022/06/06 10:29:25;;;;;;;3.95;2.30;;;23.00;95.60;;;;;;4994109;28;20054;-85
2022/06/06 10:32:42;;;;;;;4.35;1.50;;;23.20;95.50;;;;;;5000251;28;20033;-87
2022/06/06 10:35:08;;;;;;;1.55;1.15;;;;;;;;;;4997005;28;20176;-85
2022/06/06 10:37:44;;;;;;;3.70;1.73;;;23.10;93.50;;;;;;5002905;28;20034;-83
2022/06/06 10:40:35;;;;;;;2.65;1.38;;;23.00;94.00;;;;;;5004416;28;20022;-84
2022/06/06 10:43:39;;;;;;;2.00;1.40;;;22.70;93.80;;;;;;5004091;28;20023;-83
2022/06/06 10:46:24;;;;;;;3.40;1.67;;;22.60;94.00;;;;;;5002039;28;20023;-85
2022/06/06 10:49:10;;;;;;;2.20;1.40;;;22.50;94.50;;;;;;5003008;28;20032;-85
2022/06/06 10:52:03;;;;;;;3.95;1.30;;;22.50;94.80;;;;;;5004671;28;20032;-86
2022/06/06 10:54:46;;;;;;;5.43;1.48;;;22.80;94.00;;;;;;5009937;28;20114;-87
2022/06/06 10:57:31;;;;;;;2.95;1.35;;;23.10;93.60;;;;;;5010340;28;20038;-90
2022/06/06 11:00:06;;;;;;;3.70;1.40;;;23.10;93.70;;;;;;5013153;28;20061;-87
2022/06/06 11:02:50;;;;;;;3.78;1.40;;;23.20;93.30;;;;;;5012711;28;20018;-89
2022/06/06 11:05:34;;;;;;;4.05;1.40;;;23.20;93.40;;;;;;5008975;28;20485;-84
2022/06/06 11:08:09;;;;;;;2.97;1.42;;;;;;;;;;4995022;28;20109;-82
2022/06/06 11:11:00;;;;;;;2.55;1.50;;;22.80;93.70;;;;;;4997019;28;20094;-84
2022/06/06 11:13:29;;;;;;;2.63;1.38;;;22.30;94.00;;;;;;4991839;28;20030;-84
2022/06/06 11:16:04;;;;;;;3.05;1.27;;;;;;;;;;4995330;28;20027;-85
2022/06/06 11:18:44;;;;;;;3.83;1.10;;;22.40;93.60;;;;;;5013118;28;20057;-82
2022/06/06 11:21:10;;;;;;;;;;;22.70;92.90;;;;;;4999280;28;20029;-83
2022/06/06 11:23:54;;;;;;;4.13;1.05;;;22.90;92.50;;;;;;5010243;28;19914;-84
2022/06/06 11:26:32;;;;;;;2.10;1.20;;;23.20;92.40;;;;;;5000190;28;20113;-84
2022/06/06 11:29:36;;;;;;;3.13;0.93;;;23.70;91.40;;;;;;4998730;28;20019;-84
2022/06/06 11:32:11;;;;;;;3.53;1.20;;;23.90;90.20;;;;;;4937006;29;20114;-82
2022/06/06 11:34:46;;;;;;;4.70;1.25;;;23.90;90.20;;;;;;4992791;28;20064;-81
2022/06/06 11:37:48;;;;;;;3.33;0.90;;;24.10;88.90;;;;;;4999434;28;20032;-81
2022/06/06 11:40:19;;;;;;;2.88;1.00;;;24.10;87.80;;;;;;4999481;28;20041;-85
2022/06/06 11:43:19;;;;;;;1.55;1.10;;;24.40;85.60;;;;;;4998362;28;20061;-82
2022/06/06 11:45:57;;;;;;;2.65;0.80;;;24.70;84.60;;;;;;4998962;28;20042;-81
2022/06/06 11:49:01;;;;;;;2.88;1.17;;;24.40;83.50;;;;;;4997929;28;20041;-83
2022/06/06 11:52:08;;;;;;;3.25;1.00;;;24.40;83.60;;;;;;4998365;28;20034;-83
2022/06/06 11:55:05;;;;;;;3.85;1.10;;;24.40;85.00;;;;;;4998116;28;20038;-82
2022/06/06 11:57:46;;;;;;;1.20;0.85;;;24.20;85.70;;;;;;4997133;28;20023;-86
2022/06/06 12:00:33;;;;;;;1.73;1.10;;;24.10;86.60;;;;;;4997343;28;20046;-83
2022/06/06 12:03:17;;;;;;;4.80;1.27;;;24.10;86.00;;;;;;4997647;28;20014;-82
2022/06/06 12:06:08;;;;;;;3.65;1.73;;;24.10;85.50;;;;;;4997604;28;20468;-80
2022/06/06 12:08:36;;;;;;;3.85;1.20;;;24.00;83.80;;;;;;4997226;28;20085;-82
2022/06/06 12:11:36;;;;;;;2.80;0.75;;;24.10;82.60;;;;;;4996912;28;20364;-81
2022/06/06 12:14:38;;;;;;;5.63;0.85;;;24.30;82.10;;;;;;4992325;28;20109;-85
2022/06/06 12:17:42;;;;;;;1.42;0.80;;;24.50;80.90;;;;;;4982334;28;20037;-82
2022/06/06 12:20:28;;;;;;;2.95;1.25;;;24.50;80.80;;;;;;4998463;28;20026;-82
2022/06/06 12:23:25;;;;;;;2.55;0.93;;;24.70;80.80;;;;;;4998867;28;20574;-85
2022/06/06 12:26:03;;;;;;;1.85;0.98;;;24.80;78.20;;;;;;4999984;28;20475;-81
2022/06/06 12:29:14;;;;;;;4.95;0.90;;;24.90;77.70;;;;;;5002189;28;20029;-82
2022/06/06 12:32:01;;;;;;;1.92;0.90;;;24.90;77.70;;;;;;4944969;29;20066;-79
2022/06/06 12:34:30;;;;;;;1.48;0.95;;;24.40;75.80;;;;;;4999985;28;20065;-83
2022/06/06 12:37:02;;;;;;;2.28;0.95;;;24.40;76.80;;;;;;4999715;28;20031;-83
2022/06/06 12:39:30;;;;;;;2.33;1.00;;;23.70;78.70;;;;;;4999999;28;20037;-84
2022/06/06 12:41:59;;;;;;;2.10;1.10;;;23.70;79.00;;;;;;5000809;28;20069;-81
2022/06/06 12:44:52;;;;;;;2.33;1.30;;;23.80;78.80;;;;;;5000181;28;20026;-83
2022/06/06 12:47:54;;;;;;;2.75;1.00;;;24.10;78.00;;;;;;5000049;28;20023;-81
2022/06/06 12:50:38;;;;;;;3.95;1.20;;;24.40;76.60;;;;;;5001600;28;20025;-83
2022/06/06 12:53:12;;;;;;;1.77;1.00;;;24.40;76.60;;;;;;5001581;28;20038;-83
2022/06/06 12:58:44;;;;;;;2.08;0.80;;;24.30;73.90;;;;;;5002071;28;20122;-82
2022/06/06 13:01:37;;;;;;;3.42;1.00;;;24.30;74.80;;;;;;4984327;28;20031;-82
2022/06/06 13:04:38;;;;;;;1.63;0.98;;;24.50;73.80;;;;;;4999513;28;20497;-82
2022/06/06 13:07:11;;;;;;;1.20;0.90;;;24.60;73.60;;;;;;4999716;28;20030;-85
2022/06/06 13:10:07;;;;;;;3.03;0.95;;;24.60;72.10;;;;;;4999541;28;20023;-85
2022/06/06 13:12:52;;;;;;;1.65;1.00;;;24.50;72.60;;;;;;5000594;28;20022;-85
2022/06/06 13:15:27;;;;;;;4.47;1.90;;;24.40;72.50;;;;;;5000060;28;20026;-86
2022/06/06 13:18:20;;;;;;;2.00;0.98;;;24.40;72.80;;;;;;4999321;28;20168;-85
2022/06/06 13:21:04;;;;;;;4.57;1.23;;;24.30;71.40;;;;;;5005410;28;20026;-87
2022/06/06 13:23:40;;;;;;;3.88;1.40;;;24.50;71.20;;;;;;5002583;28;20033;-83
2022/06/06 13:26:48;;;;;;;2.88;1.00;;;24.50;71.10;;;;;;4996265;28;20033;-84
2022/06/06 13:29:45;;;;;;;2.28;0.90;;;24.50;70.50;;;;;;4987593;28;20034;-86
2022/06/06 13:32:34;;;;;;;3.08;0.90;;;24.70;72.10;;;;;;4977875;28;20031;-83
2022/06/06 13:34:59;;;;;;;1.42;0.80;;;24.60;73.80;;;;;;5001877;28;20049;-84
2022/06/06 13:37:46;;;;;;;4.57;1.63;;;24.40;75.50;;;;;;5002589;28;20030;-83
2022/06/06 13:40:37;;;;;;;2.78;1.10;;;24.40;75.40;;;;;;4999820;28;20041;-86
2022/06/06 13:43:33;;;;;;;2.42;1.35;;;24.50;75.30;;;;;;5002861;28;20026;-85
2022/06/06 13:46:38;;;;;;;3.58;1.60;;;24.60;76.20;;;;;;5004379;28;20057;-86
2022/06/06 13:49:28;;;;;;;3.33;1.30;;;24.50;77.00;;;;;;5004488;28;20031;-84
2022/06/06 13:52:19;;;;;;;1.52;1.02;;;24.50;76.80;;;;;;5005893;28;20030;-85
2022/06/06 13:54:45;;;;;;;2.95;1.00;;;;;;;;;;5000434;28;20054;-87
2022/06/06 13:57:23;;;;;;;2.75;0.95;;;24.60;77.10;;;;;;5005849;28;20045;-86
2022/06/06 14:00:04;;;;;;;4.53;1.30;;;24.50;76.50;;;;;;5005439;28;20031;-83
2022/06/06 14:02:40;;;;;;;2.38;1.20;;;24.30;76.40;;;;;;4996955;28;20023;-85
2022/06/06 14:05:28;;;;;;;4.07;1.40;;;24.30;76.70;;;;;;5009504;28;20066;-85
2022/06/06 14:08:16;;;;;;;4.30;1.40;;;24.20;77.10;;;;;;5010422;28;20522;-84
2022/06/06 14:10:57;;;;;;;2.85;0.80;;;24.60;74.30;;;;;;5006114;28;20026;-86
2022/06/06 14:13:50;;;;;;;3.35;1.30;;;24.50;74.90;;;;;;5011353;28;20007;-85
2022/06/06 14:16:57;;;;;;;2.85;0.90;;;24.90;74.90;;;;;;5015517;28;20021;-83
2022/06/06 14:19:33;;;;;;;4.20;0.90;;;24.70;71.50;;;;;;4941202;29;20028;-84
2022/06/06 14:22:01;;;;;;;1.48;0.80;;;24.70;71.60;;;;;;4943287;28;20059;-85
2022/06/06 14:24:33;;;;;;;5.30;1.20;;;24.60;72.00;;;;;;4982537;28;20045;-86
2022/06/06 14:27:08;;;;;;;2.65;1.08;;;24.60;72.90;;;;;;5016372;28;20030;-84
2022/06/06 14:29:58;;;;;;;1.45;0.93;;;24.60;71.40;;;;;;5015773;28;20035;-84
2022/06/06 14:32:25;;;;;;;1.60;0.85;;;24.60;72.30;;;;;;5009923;28;20039;-87
2022/06/06 14:35:18;;;;;;;2.72;0.93;;;24.30;73.60;;;;;;5015711;28;20041;-84
2022/06/06 14:37:46;;;;;;;3.08;0.85;;;24.30;74.60;;;;;;5015508;28;20019;-86
2022/06/06 14:40:36;;;;;;;3.38;1.02;;;24.30;75.20;;;;;;5015011;28;20027;-84
2022/06/06 14:43:05;;;;;;;1.50;0.80;;;24.50;75.00;;;;;;5029142;28;20026;-85
2022/06/06 14:45:35;;;;;;;3.75;1.83;;;24.60;73.70;;;;;;5015604;28;20041;-86
2022/06/06 14:48:17;;;;;;;2.05;0.80;;;24.90;73.70;;;;;;5007974;28;20031;-85
2022/06/06 14:50:58;;;;;;;2.00;1.00;;;25.00;74.00;;;;;;5004676;28;20054;-85
2022/06/06 14:53:33;;;;;;;3.35;1.20;;;25.10;73.10;;;;;;5004630;28;20038;-84
2022/06/06 14:56:04;;;;;;;1.27;0.70;;;24.70;72.70;;;;;;4999681;28;20026;-86
2022/06/06 14:58:32;;;;;;;2.47;0.70;;;24.70;73.20;;;;;;5007219;28;20090;-82
2022/06/06 15:01:03;;;;;;;2.20;1.25;;;24.60;73.10;;;;;;5009017;28;20026;-84
2022/06/06 15:03:42;;;;;;;1.40;0.88;;;24.30;73.80;;;;;;5005437;28;20026;-85
2022/06/06 15:06:16;;;;;;;1.35;0.70;;;24.40;73.90;;;;;;5004040;28;20014;-84
2022/06/06 15:08:56;;;;;;;2.17;0.90;;;24.50;74.10;;;;;;5007555;28;20334;-83
2022/06/06 15:11:25;;;;;;;2.85;0.90;;;24.40;74.00;;;;;;5006194;28;20023;-84
2022/06/06 15:14:07;;;;;;;3.58;0.90;;;24.40;74.50;;;;;;5009831;28;20037;-83
2022/06/06 15:16:36;;;;;;;1.85;1.10;;;24.30;74.70;;;;;;5008326;28;20030;-86
2022/06/06 15:19:03;;;;;;;2.30;0.80;;;24.40;74.00;;;;;;5008695;28;20086;-84
2022/06/06 15:21:37;;;;;;;1.25;0.75;;;24.50;73.30;;;;;;5007464;28;20050;-83
2022/06/06 15:24:10;;;;;;;1.63;0.80;;;24.60;73.80;;;;;;5005448;28;20030;-84
2022/06/06 15:26:48;;;;;;;2.83;0.82;;;24.60;73.20;;;;;;4998078;28;20097;-83
2022/06/06 15:29:41;;;;;;;2.22;0.90;;;24.50;72.50;;;;;;4991166;28;20023;-85
2022/06/06 15:32:17;;;;;;;1.90;1.00;;;24.50;72.60;;;;;;4998331;28;20050;-83
2022/06/06 15:34:42;;;;;;;1.65;0.90;;;24.50;72.60;;;;;;5001672;28;20035;-84
2022/06/06 15:37:34;;;;;;;4.70;0.90;;;24.00;72.80;;;;;;4999772;28;20031;-84
2022/06/06 15:40:25;;;;;;;2.45;1.17;;;24.00;73.20;;;;;;4985779;28;20027;-83
2022/06/06 15:43:00;;;;;;;1.40;0.90;;;24.10;73.50;;;;;;5001651;28;20593;-84
2022/06/06 15:45:45;;;;;;;2.80;1.10;;;24.30;72.90;;;;;;5000518;28;20045;-83
2022/06/06 15:48:41;;;;;;;2.42;1.20;;;24.60;72.10;;;;;;5000439;28;20033;-85
2022/06/06 15:51:24;;;;;;;3.15;1.00;;;24.50;70.90;;;;;;4992617;28;20550;-85
2022/06/06 15:53:50;;;;;;;3.20;0.77;;;;;;;;;;5000280;28;20545;-84
2022/06/06 15:56:16;;;;;;;3.67;2.20;;;;;;;;;;4998783;28;20083;-81
2022/06/06 15:58:54;;;;;;;1.83;0.90;;;24.40;71.40;;;;;;4999994;28;20030;-83
2022/06/06 16:01:48;;;;;;;3.25;1.30;;;24.40;72.00;;;;;;5000105;28;20057;-84
2022/06/06 16:04:29;;;;;;;2.53;1.20;;;24.40;72.40;;;;;;4997506;23;20039;-89
2022/06/06 16:07:23;;;;;;;4.22;1.23;;;24.30;72.90;;;;;;5016793;28;20029;-89
2022/06/06 16:09:56;;;;;;;2.60;0.90;;;24.30;72.80;;;;;;5017140;28;20651;-88
2022/06/06 16:12:23;;;;;;;2.33;0.95;;;;;;;;;;5021317;28;20046;-87
2022/06/06 16:15:02;;;;;;;3.53;0.95;;;;;;;;;;5022456;28;20034;-89
2022/06/06 16:17:40;;;;;;;2.60;1.33;;;24.30;71.40;;;;;;5009085;28;20057;-87
2022/06/06 16:20:30;;;;;;;1.65;0.90;;;24.30;71.40;;;;;;5019494;28;20037;-86
2022/06/06 16:23:20;;;;;;;1.98;0.82;;;24.50;69.30;;;;;;5016172;28;20232;-86
2022/06/06 16:26:18;;;;;;;2.78;0.90;;;24.40;69.30;;;;;;5016649;28;20042;-87
2022/06/06 16:28:53;;;;;;;1.40;0.90;;;24.40;69.90;;;;;;5008738;28;20022;-87
2022/06/06 16:31:27;;;;;;;2.95;1.10;;;24.30;69.40;;;;;;5017008;28;20022;-85
2022/06/06 16:34:16;;;;;;;4.25;1.02;;;24.20;70.10;;;;;;5016267;28;20807;-87